createdAt,value
2022-09-25T00:00:19.820Z,6.6
2022-09-25T00:01:28.473Z,7.1
2022-09-25T00:02:36.882Z,7.1
2022-09-25T00:03:45.267Z,7.1
2022-09-25T00:04:53.881Z,7.4
2022-09-25T00:06:02.305Z,7.4
2022-09-25T00:07:10.863Z,7.4
2022-09-25T00:08:19.358Z,7.1
2022-09-25T00:09:27.765Z,7.1
2022-09-25T00:10:36.170Z,7.1
2022-09-25T00:11:44.795Z,7.3
2022-09-25T00:12:53.203Z,7.3
2022-09-25T00:14:01.679Z,7.3
2022-09-25T00:15:10.321Z,7.3
2022-09-25T00:16:18.786Z,7.3
2022-09-25T00:17:27.116Z,7.3
2022-09-25T00:18:35.754Z,6.7
2022-09-25T00:19:44.209Z,6.7
2022-09-25T00:20:52.609Z,6.7
2022-09-25T00:22:01.248Z,7.1
2022-09-25T00:23:09.716Z,7.1
2022-09-25T00:24:18.205Z,7.1
2022-09-25T00:25:26.804Z,7.3
2022-09-25T00:26:35.189Z,7.3
2022-09-25T00:27:43.637Z,7.3
2022-09-25T00:28:52.233Z,7.3
2022-09-25T00:30:00.675Z,7.3
2022-09-25T00:31:09.145Z,7.3
2022-09-25T00:32:17.668Z,7.7
2022-09-25T00:33:26.121Z,7.7
2022-09-25T00:34:34.560Z,7.7
2022-09-25T00:35:43.133Z,8.1
2022-09-25T00:36:51.545Z,8.1
2022-09-25T00:37:59.949Z,8.1
2022-09-25T00:39:08.619Z,7.6
2022-09-25T00:40:17.107Z,7.6
2022-09-25T00:41:25.399Z,7.6
2022-09-25T00:42:34.028Z,7.8
2022-09-25T00:43:42.427Z,7.8
2022-09-25T00:44:50.896Z,7.8
2022-09-25T00:45:59.510Z,7.5
2022-09-25T00:47:07.898Z,7.5
2022-09-25T00:48:16.301Z,7.5
2022-09-25T00:49:24.912Z,8
2022-09-25T00:50:33.346Z,8
2022-09-25T00:51:41.771Z,8
2022-09-25T00:52:50.364Z,8.2
2022-09-25T00:53:58.787Z,8.2
2022-09-25T00:55:07.252Z,8.2
2022-09-25T00:56:15.820Z,8.3
2022-09-25T00:57:24.230Z,8.3
2022-09-25T00:58:32.678Z,8.3
2022-09-25T00:59:41.276Z,8.1
2022-09-25T01:00:49.764Z,8.1
2022-09-25T01:01:58.093Z,8.1
2022-09-25T01:03:06.728Z,7.8
2022-09-25T01:04:15.150Z,7.8
2022-09-25T01:05:23.564Z,7.8
2022-09-25T01:06:32.199Z,7.3
2022-09-25T01:07:40.589Z,7.3
2022-09-25T01:08:49.063Z,7.3
2022-09-25T01:09:57.663Z,7.7
2022-09-25T01:11:06.092Z,7.7
2022-09-25T01:12:14.472Z,7.7
2022-09-25T01:13:23.098Z,7.7
2022-09-25T01:14:31.517Z,7.7
2022-09-25T01:15:39.934Z,7.7
2022-09-25T01:16:48.585Z,7
2022-09-25T01:17:56.977Z,7
2022-09-25T01:19:05.443Z,7
2022-09-25T01:20:14.072Z,7.6
2022-09-25T01:21:22.468Z,7.6
2022-09-25T01:22:30.903Z,7.6
2022-09-25T01:23:39.542Z,7.4
2022-09-25T01:24:51.319Z,7.4
2022-09-25T01:26:01.455Z,7.4
2022-09-25T01:27:10.086Z,7.7
2022-09-25T01:28:18.512Z,7.7
2022-09-25T01:29:26.954Z,7.7
2022-09-25T01:30:35.648Z,8
2022-09-25T01:31:43.985Z,8
2022-09-25T01:32:52.422Z,8
2022-09-25T01:34:01.065Z,8.5
2022-09-25T01:35:09.476Z,8.5
2022-09-25T01:36:17.894Z,8.5
2022-09-25T01:37:26.561Z,8.3
2022-09-25T01:38:34.955Z,8.3
2022-09-25T01:39:43.402Z,8.3
2022-09-25T01:40:52.054Z,8.7
2022-09-25T01:42:00.445Z,8.7
2022-09-25T01:43:08.949Z,8.7
2022-09-25T01:44:17.441Z,8.2
2022-09-25T01:45:25.846Z,8.2
2022-09-25T01:46:34.439Z,8.2
2022-09-25T01:47:42.938Z,8.5
2022-09-25T01:48:51.391Z,8.5
2022-09-25T01:49:59.753Z,8.5
2022-09-25T01:51:08.389Z,9.1
2022-09-25T01:52:16.814Z,9.1
2022-09-25T01:53:25.244Z,9.1
2022-09-25T01:54:33.872Z,8.5
2022-09-25T01:55:42.247Z,8.5
2022-09-25T01:56:50.730Z,8.5
2022-09-25T01:57:59.293Z,8.9
2022-09-25T01:59:07.761Z,8.9
2022-09-25T02:00:16.137Z,8.9
2022-09-25T02:01:24.849Z,8.7
2022-09-25T02:02:33.274Z,8.7
2022-09-25T02:03:41.642Z,8.7
2022-09-25T02:04:50.297Z,8.6
2022-09-25T02:05:58.682Z,8.6
2022-09-25T02:07:07.154Z,8.6
2022-09-25T02:08:15.735Z,8.1
2022-09-25T02:09:24.183Z,8.1
2022-09-25T02:10:32.550Z,8.1
2022-09-25T02:11:41.180Z,8.7
2022-09-25T02:12:49.581Z,8.7
2022-09-25T02:13:58.027Z,8.7
2022-09-25T02:15:06.691Z,7.9
2022-09-25T02:16:15.131Z,7.9
2022-09-25T02:17:24.044Z,7.9
2022-09-25T02:18:32.647Z,7.9
2022-09-25T02:19:41.080Z,7.9
2022-09-25T02:20:49.478Z,7.9
2022-09-25T02:21:58.115Z,7.6
2022-09-25T02:23:06.542Z,7.6
2022-09-25T02:24:14.963Z,7.6
2022-09-25T02:25:23.554Z,7.4
2022-09-25T02:26:31.961Z,7.4
2022-09-25T02:27:40.409Z,7.4
2022-09-25T02:28:49.013Z,8.3
2022-09-25T02:29:57.415Z,8.3
2022-09-25T02:31:05.898Z,8.3
2022-09-25T02:32:14.471Z,9
2022-09-25T02:33:22.846Z,9
2022-09-25T02:34:31.278Z,9
2022-09-25T02:35:39.884Z,9.3
2022-09-25T02:36:48.316Z,9.3
2022-09-25T02:37:56.739Z,9.3
2022-09-25T02:39:05.328Z,8.6
2022-09-25T02:40:13.768Z,8.6
2022-09-25T02:41:22.160Z,8.6
2022-09-25T02:42:30.771Z,9.5
2022-09-25T02:43:39.180Z,9.5
2022-09-25T02:44:47.575Z,9.5
2022-09-25T02:45:56.317Z,9.6
2022-09-25T02:47:04.804Z,9.6
2022-09-25T02:48:13.107Z,9.6
2022-09-25T02:49:21.716Z,8.8
2022-09-25T02:50:30.127Z,8.8
2022-09-25T02:51:38.551Z,8.8
2022-09-25T02:52:47.176Z,8.2
2022-09-25T02:53:55.591Z,8.2
2022-09-25T02:55:04.036Z,8.2
2022-09-25T02:56:12.649Z,9.3
2022-09-25T02:57:21.083Z,9.3
2022-09-25T02:58:29.491Z,9.3
2022-09-25T02:59:38.091Z,9.1
2022-09-25T03:00:46.513Z,9.1
2022-09-25T03:01:54.931Z,9.1
2022-09-25T03:03:03.550Z,8.3
2022-09-25T03:04:12.178Z,8.3
2022-09-25T03:05:20.350Z,8.3
2022-09-25T03:06:29.022Z,8.6
2022-09-25T03:07:37.386Z,8.6
2022-09-25T03:08:45.837Z,8.6
2022-09-25T03:09:54.449Z,8.2
2022-09-25T03:11:02.869Z,8.2
2022-09-25T03:12:11.269Z,8.2
2022-09-25T03:13:19.893Z,8.1
2022-09-25T03:14:28.307Z,8.1
2022-09-25T03:15:36.720Z,8.1
2022-09-25T03:16:45.516Z,8.1
2022-09-25T03:17:53.759Z,8.1
2022-09-25T03:19:02.249Z,8.1
2022-09-25T03:20:10.811Z,9.4
2022-09-25T03:21:19.268Z,9.4
2022-09-25T03:22:27.651Z,9.4
2022-09-25T03:23:36.286Z,8.5
2022-09-25T03:24:44.696Z,8.5
2022-09-25T03:25:53.095Z,8.5
2022-09-25T03:27:01.723Z,8.1
2022-09-25T03:28:10.176Z,8.1
2022-09-25T03:29:18.538Z,8.1
2022-09-25T03:30:27.168Z,7.8
2022-09-25T03:31:35.567Z,7.8
2022-09-25T03:32:44.031Z,7.8
2022-09-25T03:33:52.597Z,7.4
2022-09-25T03:35:01.030Z,7.4
2022-09-25T03:36:09.443Z,7.4
2022-09-25T03:37:18.028Z,7.9
2022-09-25T03:38:26.443Z,7.9
2022-09-25T03:39:34.846Z,7.9
2022-09-25T03:40:43.548Z,8.1
2022-09-25T03:41:51.881Z,8.1
2022-09-25T03:43:00.309Z,8.1
2022-09-25T03:44:07.369Z,8
2022-09-25T03:45:15.771Z,8
2022-09-25T03:46:24.326Z,8
2022-09-25T03:47:32.821Z,8.8
2022-09-25T03:48:41.241Z,8.8
2022-09-25T03:49:49.652Z,8.8
2022-09-25T03:50:58.289Z,8.1
2022-09-25T03:52:06.660Z,8.1
2022-09-25T03:53:15.072Z,8.1
2022-09-25T03:54:23.691Z,9.3
2022-09-25T03:55:32.090Z,9.3
2022-09-25T03:56:40.488Z,9.3
2022-09-25T03:57:49.105Z,8.7
2022-09-25T03:58:57.508Z,8.7
2022-09-25T04:00:05.920Z,8.7
2022-09-25T04:01:14.596Z,9.1
2022-09-25T04:02:23.011Z,9.1
2022-09-25T04:03:31.380Z,9.1
2022-09-25T04:04:40.003Z,9.6
2022-09-25T04:05:48.408Z,9.6
2022-09-25T04:06:56.828Z,9.6
2022-09-25T04:08:05.405Z,9.3
2022-09-25T04:09:13.812Z,9.3
2022-09-25T04:10:22.226Z,9.3
2022-09-25T04:11:30.847Z,9.4
2022-09-25T04:12:39.259Z,9.4
2022-09-25T04:13:47.716Z,9.4
2022-09-25T04:14:56.332Z,9.5
2022-09-25T04:16:04.912Z,9.5
2022-09-25T04:17:13.178Z,9.5
2022-09-25T04:18:21.810Z,10.1
2022-09-25T04:19:30.250Z,10.1
2022-09-25T04:20:38.655Z,10.1
2022-09-25T04:21:47.296Z,10.1
2022-09-25T04:22:55.691Z,10.1
2022-09-25T04:24:04.184Z,10.1
2022-09-25T04:25:12.723Z,10.3
2022-09-25T04:26:21.195Z,10.3
2022-09-25T04:27:29.601Z,10.3
2022-09-25T04:28:38.199Z,9.6
2022-09-25T04:29:46.608Z,9.6
2022-09-25T04:30:55.094Z,9.6
2022-09-25T04:32:03.708Z,9.3
2022-09-25T04:33:12.090Z,9.3
2022-09-25T04:34:20.554Z,9.3
2022-09-25T04:35:29.206Z,9.8
2022-09-25T04:36:37.624Z,9.8
2022-09-25T04:37:46.018Z,9.8
2022-09-25T04:38:54.649Z,10.2
2022-09-25T04:40:03.069Z,10.2
2022-09-25T04:41:11.518Z,10.2
2022-09-25T04:42:20.114Z,10.2
2022-09-25T04:43:28.552Z,10.2
2022-09-25T04:44:36.941Z,10.2
2022-09-25T04:45:45.621Z,10.2
2022-09-25T04:46:54.009Z,10.2
2022-09-25T04:48:02.419Z,10.2
2022-09-25T04:49:11.033Z,10.3
2022-09-25T04:50:19.426Z,10.3
2022-09-25T04:51:27.821Z,10.3
2022-09-25T04:52:36.520Z,9.9
2022-09-25T04:53:44.941Z,9.9
2022-09-25T04:54:53.494Z,9.9
2022-09-25T04:56:02.243Z,9.8
2022-09-25T04:57:10.956Z,9.8
2022-09-25T04:58:19.365Z,9.8
2022-09-25T04:59:27.970Z,9.7
2022-09-25T05:00:36.399Z,9.7
2022-09-25T05:01:44.961Z,9.7
2022-09-25T05:02:53.461Z,9.6
2022-09-25T05:04:05.011Z,9.6
2022-09-25T05:05:10.223Z,9.6
2022-09-25T05:06:18.840Z,9.3
2022-09-25T05:07:27.268Z,9.3
2022-09-25T05:08:35.657Z,9.3
2022-09-25T05:09:44.308Z,9.8
2022-09-25T05:10:52.730Z,9.8
2022-09-25T05:12:01.102Z,9.8
2022-09-25T05:13:09.717Z,8.6
2022-09-25T05:14:18.132Z,8.6
2022-09-25T05:15:26.579Z,8.6
2022-09-25T05:16:35.267Z,8.6
2022-09-25T05:17:43.603Z,8.6
2022-09-25T05:18:52.064Z,8.6
2022-09-25T05:20:00.651Z,8.3
2022-09-25T05:21:09.094Z,8.3
2022-09-25T05:22:17.528Z,8.3
2022-09-25T05:23:26.178Z,8.3
2022-09-25T05:24:34.567Z,8.3
2022-09-25T05:25:42.993Z,8.3
2022-09-25T05:26:51.605Z,8
2022-09-25T05:28:00.043Z,8
2022-09-25T05:29:08.499Z,8
2022-09-25T05:30:17.109Z,8.4
2022-09-25T05:31:25.530Z,8.4
2022-09-25T05:32:33.952Z,8.4
2022-09-25T05:33:42.598Z,8.7
2022-09-25T05:34:51.013Z,8.7
2022-09-25T05:35:59.427Z,8.7
2022-09-25T05:37:08.047Z,8.6
2022-09-25T05:38:16.444Z,8.6
2022-09-25T05:39:24.838Z,8.6
2022-09-25T05:40:33.559Z,8.9
2022-09-25T05:41:41.847Z,8.9
2022-09-25T05:42:50.293Z,8.9
2022-09-25T05:43:58.866Z,9.5
2022-09-25T05:45:07.736Z,9.5
2022-09-25T05:46:16.682Z,9.5
2022-09-25T05:47:25.251Z,9.1
2022-09-25T05:48:33.650Z,9.1
2022-09-25T05:49:42.137Z,9.1
2022-09-25T05:50:50.758Z,9.4
2022-09-25T05:51:59.162Z,9.4
2022-09-25T05:53:07.558Z,9.4
2022-09-25T05:54:16.158Z,10.1
2022-09-25T05:55:24.582Z,10.1
2022-09-25T05:56:32.948Z,10.1
2022-09-25T05:57:41.607Z,11.1
2022-09-25T05:58:50.134Z,11.1
2022-09-25T05:59:58.469Z,11.1
2022-09-25T06:01:07.054Z,11
2022-09-25T06:02:15.504Z,11
2022-09-25T06:03:23.969Z,11
2022-09-25T06:04:32.489Z,12.1
2022-09-25T06:05:40.879Z,12.1
2022-09-25T06:06:49.282Z,12.1
2022-09-25T06:07:57.911Z,12
2022-09-25T06:09:06.300Z,12
2022-09-25T06:10:14.721Z,12
2022-09-25T06:11:23.311Z,11.7
2022-09-25T06:12:31.710Z,11.7
2022-09-25T06:13:40.134Z,11.7
2022-09-25T06:14:48.749Z,11.2
2022-09-25T06:15:57.204Z,11.2
2022-09-25T06:17:05.555Z,11.2
2022-09-25T06:18:14.151Z,11.1
2022-09-25T06:19:22.550Z,11.1
2022-09-25T06:20:30.953Z,11.1
2022-09-25T06:21:39.545Z,10.9
2022-09-25T06:22:47.995Z,10.9
2022-09-25T06:23:56.368Z,10.9
2022-09-25T06:25:04.980Z,11.3
2022-09-25T06:26:13.399Z,11.3
2022-09-25T06:27:21.778Z,11.3
2022-09-25T06:28:30.385Z,11.3
2022-09-25T06:29:38.805Z,11.3
2022-09-25T06:30:47.228Z,11.3
2022-09-25T06:31:55.793Z,12.6
2022-09-25T06:33:04.259Z,12.6
2022-09-25T06:34:12.639Z,12.6
2022-09-25T06:35:21.201Z,13.3
2022-09-25T06:36:29.617Z,13.3
2022-09-25T06:37:38.009Z,13.3
2022-09-25T06:38:46.620Z,12.4
2022-09-25T06:39:55.015Z,12.4
2022-09-25T06:41:03.496Z,12.4
2022-09-25T06:42:12.035Z,11.9
2022-09-25T06:43:20.447Z,11.9
2022-09-25T06:44:28.843Z,11.9
2022-09-25T06:45:37.462Z,11.7
2022-09-25T06:46:45.897Z,11.7
2022-09-25T06:47:54.278Z,11.7
2022-09-25T06:49:02.886Z,11.9
2022-09-25T06:50:11.281Z,11.9
2022-09-25T06:51:19.673Z,11.9
2022-09-25T06:52:28.285Z,11.2
2022-09-25T06:53:36.712Z,11.2
2022-09-25T06:54:45.117Z,11.2
2022-09-25T06:55:53.716Z,10.9
2022-09-25T06:57:02.129Z,10.9
2022-09-25T06:58:10.528Z,10.9
2022-09-25T06:59:19.121Z,11.8
2022-09-25T07:00:27.554Z,11.8
2022-09-25T07:01:35.982Z,11.8
2022-09-25T07:02:44.619Z,10.9
2022-09-25T07:03:52.947Z,10.9
2022-09-25T07:05:01.345Z,10.9
2022-09-25T07:06:09.960Z,10.8
2022-09-25T07:07:18.341Z,10.8
2022-09-25T07:08:26.769Z,10.8
2022-09-25T07:09:35.390Z,10.2
2022-09-25T07:10:45.719Z,10.2
2022-09-25T07:11:52.166Z,10.2
2022-09-25T07:13:00.801Z,11.7
2022-09-25T07:14:09.191Z,11.7
2022-09-25T07:15:17.673Z,11.7
2022-09-25T07:16:26.318Z,13.1
2022-09-25T07:17:34.642Z,13.1
2022-09-25T07:18:43.072Z,13.1
2022-09-25T07:19:51.674Z,15.6
2022-09-25T07:21:00.066Z,15.6
2022-09-25T07:22:08.494Z,15.6
2022-09-25T07:23:17.091Z,14.8
2022-09-25T07:24:25.507Z,14.8
2022-09-25T07:25:33.902Z,14.8
2022-09-25T07:26:43.398Z,15.2
2022-09-25T07:27:50.923Z,15.2
2022-09-25T07:28:59.299Z,15.2
2022-09-25T07:30:07.906Z,14.3
2022-09-25T07:31:16.429Z,14.3
2022-09-25T07:32:24.708Z,14.3
2022-09-25T07:33:33.346Z,12.7
2022-09-25T07:34:41.768Z,12.7
2022-09-25T07:35:50.136Z,12.7
2022-09-25T07:36:58.762Z,12.3
2022-09-25T07:38:07.156Z,12.3
2022-09-25T07:39:18.464Z,12.3
2022-09-25T07:40:24.229Z,11.3
2022-09-25T07:41:32.531Z,11.3
2022-09-25T07:42:40.984Z,11.3
2022-09-25T07:43:52.548Z,11
2022-09-25T07:44:57.993Z,11
2022-09-25T07:46:06.460Z,11
2022-09-25T07:47:14.989Z,12.4
2022-09-25T07:48:23.400Z,12.4
2022-09-25T07:49:31.790Z,12.4
2022-09-25T07:50:40.432Z,13.1
2022-09-25T07:51:48.798Z,13.1
2022-09-25T07:52:57.192Z,13.1
2022-09-25T07:54:05.837Z,12.7
2022-09-25T07:55:14.237Z,12.7
2022-09-25T07:56:22.629Z,12.7
2022-09-25T07:57:31.264Z,9.4
2022-09-25T07:58:39.657Z,9.4
2022-09-25T07:59:48.078Z,9.4
2022-09-25T08:00:56.660Z,9.2
2022-09-25T08:02:05.143Z,9.2
2022-09-25T08:03:13.546Z,9.2
2022-09-25T08:04:22.073Z,11.1
2022-09-25T08:05:30.470Z,11.1
2022-09-25T08:06:38.947Z,11.1
2022-09-25T08:07:47.538Z,10.5
2022-09-25T08:08:55.938Z,10.5
2022-09-25T08:10:04.341Z,10.5
2022-09-25T08:11:12.967Z,10.9
2022-09-25T08:12:21.354Z,10.9
2022-09-25T08:13:29.755Z,10.9
2022-09-25T08:14:38.381Z,10.8
2022-09-25T08:15:46.802Z,10.8
2022-09-25T08:16:55.176Z,10.8
2022-09-25T08:18:03.798Z,11.9
2022-09-25T08:19:12.201Z,11.9
2022-09-25T08:20:20.628Z,11.9
2022-09-25T08:21:29.191Z,11.7
2022-09-25T08:22:37.641Z,11.7
2022-09-25T08:23:48.086Z,11.7
2022-09-25T08:24:54.613Z,12.2
2022-09-25T08:26:03.028Z,12.2
2022-09-25T08:27:11.410Z,12.2
2022-09-25T08:28:20.031Z,12.4
2022-09-25T08:29:28.423Z,12.4
2022-09-25T08:30:36.857Z,12.4
2022-09-25T08:31:45.441Z,12.8
2022-09-25T08:32:53.850Z,12.8
2022-09-25T08:34:15.159Z,12.8
2022-09-25T08:35:10.845Z,12.4
2022-09-25T08:36:19.242Z,12.4
2022-09-25T08:37:27.654Z,12.4
2022-09-25T08:38:36.297Z,12.4
2022-09-25T08:39:44.667Z,12.4
2022-09-25T08:40:53.143Z,12.4
2022-09-25T08:42:01.694Z,12.3
2022-09-25T08:43:10.091Z,12.3
2022-09-25T08:44:18.509Z,12.3
2022-09-25T08:45:27.103Z,11.7
2022-09-25T08:46:35.560Z,11.7
2022-09-25T08:47:43.913Z,11.7
2022-09-25T08:48:52.519Z,11.8
2022-09-25T08:50:00.907Z,11.8
2022-09-25T08:51:09.294Z,11.8
2022-09-25T08:52:17.932Z,10.9
2022-09-25T08:53:26.346Z,10.9
2022-09-25T08:54:34.795Z,10.9
2022-09-25T08:55:43.352Z,12.7
2022-09-25T08:56:51.769Z,12.7
2022-09-25T08:58:00.155Z,12.7
2022-09-25T08:59:08.785Z,12.6
2022-09-25T09:00:17.169Z,12.6
2022-09-25T09:01:25.661Z,12.6
2022-09-25T09:02:34.206Z,13.3
2022-09-25T09:03:42.581Z,13.3
2022-09-25T09:04:51.001Z,13.3
2022-09-25T09:05:59.594Z,12.5
2022-09-25T09:07:26.137Z,12.5
2022-09-25T09:08:16.394Z,12.5
2022-09-25T09:09:25.011Z,12.8
2022-09-25T09:10:33.430Z,12.8
2022-09-25T09:11:41.809Z,12.8
2022-09-25T09:12:50.423Z,12.7
2022-09-25T09:13:58.819Z,12.7
2022-09-25T09:15:07.243Z,12.7
2022-09-25T09:16:15.892Z,12.4
2022-09-25T09:17:24.255Z,12.4
2022-09-25T09:18:32.640Z,12.4
2022-09-25T09:19:41.245Z,13.1
2022-09-25T09:20:49.665Z,13.1
2022-09-25T09:21:58.118Z,13.1
2022-09-25T09:23:06.696Z,11.8
2022-09-25T09:24:15.098Z,11.8
2022-09-25T09:25:23.499Z,11.8
2022-09-25T09:26:32.113Z,13
2022-09-25T09:27:40.507Z,13
2022-09-25T09:28:48.929Z,13
2022-09-25T09:30:00.350Z,18.1
2022-09-25T09:31:05.967Z,18.1
2022-09-25T09:32:14.328Z,18.1
2022-09-25T09:33:22.910Z,16.799999
2022-09-25T09:34:46.799Z,16.799999
2022-09-25T09:35:39.690Z,16.799999
2022-09-25T09:36:48.297Z,15.2
2022-09-25T09:37:56.686Z,15.2
2022-09-25T09:39:05.093Z,15.2
2022-09-25T09:40:13.730Z,172.1
2022-09-25T09:41:22.146Z,172.1
2022-09-25T09:42:30.657Z,172.1
2022-09-25T09:43:39.159Z,15.2
2022-09-25T09:44:47.532Z,15.2
2022-09-25T09:45:55.958Z,15.2
2022-09-25T09:47:04.586Z,16.799999
2022-09-25T09:48:12.984Z,16.799999
2022-09-25T09:49:21.380Z,16.799999
2022-09-25T09:50:29.984Z,15.3
2022-09-25T09:51:38.418Z,15.3
2022-09-25T09:52:46.799Z,15.3
2022-09-25T09:53:55.399Z,14.9
2022-09-25T09:55:03.802Z,14.9
2022-09-25T09:56:12.183Z,14.9
2022-09-25T09:57:20.787Z,15.3
2022-09-25T09:58:29.218Z,15.3
2022-09-25T09:59:37.588Z,15.3
2022-09-25T10:00:46.185Z,14.5
2022-09-25T10:01:54.789Z,14.5
2022-09-25T10:03:03.108Z,14.5
2022-09-25T10:04:11.601Z,15.6
2022-09-25T10:05:19.982Z,15.6
2022-09-25T10:06:28.407Z,15.6
2022-09-25T10:07:37.027Z,15.6
2022-09-25T10:08:45.423Z,15.6
2022-09-25T10:09:53.819Z,15.6
2022-09-25T10:11:02.472Z,16.1
2022-09-25T10:12:10.830Z,16.1
2022-09-25T10:13:19.219Z,16.1
2022-09-25T10:14:27.831Z,16.9
2022-09-25T10:15:36.264Z,16.9
2022-09-25T10:16:44.602Z,16.9
2022-09-25T10:17:53.197Z,14.8
2022-09-25T10:19:01.617Z,14.8
2022-09-25T10:20:10.013Z,14.8
2022-09-25T10:21:18.645Z,15.4
2022-09-25T10:22:27.045Z,15.4
2022-09-25T10:23:35.430Z,15.4
2022-09-25T10:24:44.049Z,18.299999
2022-09-25T10:25:55.808Z,18.299999
2022-09-25T10:27:00.848Z,18.299999
2022-09-25T10:28:09.455Z,14.3
2022-09-25T10:29:17.861Z,14.3
2022-09-25T10:30:26.325Z,14.3
2022-09-25T10:31:34.868Z,14.6
2022-09-25T10:32:43.281Z,14.6
2022-09-25T10:33:51.692Z,14.6
2022-09-25T10:35:00.320Z,22.4
2022-09-25T10:36:08.740Z,22.4
2022-09-25T10:37:17.682Z,22.4
2022-09-25T10:38:26.319Z,15.7
2022-09-25T10:39:48.889Z,15.7
2022-09-25T10:40:43.164Z,15.7
2022-09-25T10:41:51.742Z,15.3
2022-09-25T10:43:00.151Z,15.3
2022-09-25T10:44:08.544Z,15.3
2022-09-25T10:45:17.165Z,15.3
2022-09-25T10:46:25.609Z,15.3
2022-09-25T10:47:33.979Z,15.3
2022-09-25T10:48:42.609Z,13.2
2022-09-25T10:49:51.060Z,13.2
2022-09-25T10:50:59.506Z,13.2
2022-09-25T10:52:08.137Z,14
2022-09-25T10:53:16.496Z,14
2022-09-25T10:54:24.908Z,14
2022-09-25T10:55:33.530Z,12.8
2022-09-25T10:56:41.930Z,12.8
2022-09-25T10:57:50.326Z,12.8
2022-09-25T10:58:59.019Z,12.8
2022-09-25T11:00:07.430Z,12.8
2022-09-25T11:01:16.017Z,12.8
2022-09-25T11:02:24.882Z,12.6
2022-09-25T11:03:33.864Z,12.6
2022-09-25T11:04:42.263Z,12.6
2022-09-25T11:05:50.947Z,12.7
2022-09-25T11:06:59.294Z,12.7
2022-09-25T11:08:07.742Z,12.7
2022-09-25T11:09:16.371Z,11.6
2022-09-25T11:10:24.753Z,11.6
2022-09-25T11:11:33.179Z,11.6
2022-09-25T11:12:41.797Z,10.9
2022-09-25T11:13:50.207Z,10.9
2022-09-25T11:14:58.628Z,10.9
2022-09-25T11:16:07.239Z,11.1
2022-09-25T11:17:15.686Z,11.1
2022-09-25T11:18:24.191Z,11.1
2022-09-25T11:19:32.719Z,11
2022-09-25T11:20:41.155Z,11
2022-09-25T11:21:49.529Z,11
2022-09-25T11:22:58.163Z,11.5
2022-09-25T11:24:06.562Z,11.5
2022-09-25T11:25:14.986Z,11.5
2022-09-25T11:26:23.592Z,10.6
2022-09-25T11:27:31.997Z,10.6
2022-09-25T11:28:40.390Z,10.6
2022-09-25T11:29:48.987Z,11.6
2022-09-25T11:30:57.509Z,11.6
2022-09-25T11:32:05.846Z,11.6
2022-09-25T11:33:14.462Z,10.9
2022-09-25T11:34:22.973Z,10.9
2022-09-25T11:35:31.335Z,10.9
2022-09-25T11:36:39.966Z,10.9
2022-09-25T11:37:48.329Z,10.9
2022-09-25T11:38:56.726Z,10.9
2022-09-25T11:40:05.366Z,11.1
2022-09-25T11:41:13.782Z,11.1
2022-09-25T11:42:22.189Z,11.1
2022-09-25T11:43:30.773Z,12.4
2022-09-25T11:44:39.174Z,12.4
2022-09-25T11:45:47.635Z,12.4
2022-09-25T11:46:56.223Z,12.5
2022-09-25T11:48:04.627Z,12.5
2022-09-25T11:49:13.138Z,12.5
2022-09-25T11:50:21.710Z,11.7
2022-09-25T11:51:30.080Z,11.7
2022-09-25T11:52:38.504Z,11.7
2022-09-25T11:53:47.125Z,11.6
2022-09-25T11:54:55.524Z,11.6
2022-09-25T11:56:03.949Z,11.6
2022-09-25T11:57:12.546Z,11.1
2022-09-25T11:58:20.954Z,11.1
2022-09-25T11:59:29.422Z,11.1
2022-09-25T12:00:38.071Z,9.9
2022-09-25T12:01:46.527Z,9.9
2022-09-25T12:02:54.918Z,9.9
2022-09-25T12:04:03.615Z,9.6
2022-09-25T12:05:11.988Z,9.6
2022-09-25T12:06:20.446Z,9.6
2022-09-25T12:07:29.024Z,9.5
2022-09-25T12:08:37.431Z,9.5
2022-09-25T12:09:45.839Z,9.5
2022-09-25T12:10:54.450Z,9.2
2022-09-25T12:12:02.858Z,9.2
2022-09-25T12:13:11.287Z,9.2
2022-09-25T12:14:20.018Z,10.6
2022-09-25T12:15:28.434Z,10.6
2022-09-25T12:16:37.001Z,10.6
2022-09-25T12:17:45.461Z,9.6
2022-09-25T12:18:53.895Z,9.6
2022-09-25T12:20:02.321Z,9.6
2022-09-25T12:21:10.960Z,10.4
2022-09-25T12:22:19.413Z,10.4
2022-09-25T12:23:27.842Z,10.4
2022-09-25T12:24:36.465Z,8.5
2022-09-25T12:25:44.882Z,8.5
2022-09-25T12:26:53.318Z,8.5
2022-09-25T12:28:01.916Z,8
2022-09-25T12:29:10.345Z,8
2022-09-25T12:30:18.749Z,8
2022-09-25T12:31:27.449Z,8.6
2022-09-25T12:32:35.782Z,8.6
2022-09-25T12:33:44.250Z,8.6
2022-09-25T12:34:52.899Z,10.6
2022-09-25T12:36:01.275Z,10.6
2022-09-25T12:37:09.702Z,10.6
2022-09-25T12:38:18.355Z,11.3
2022-09-25T12:39:26.773Z,11.3
2022-09-25T12:40:35.226Z,11.3
2022-09-25T12:41:43.839Z,14
2022-09-25T12:42:52.269Z,14
2022-09-25T12:44:00.663Z,14
2022-09-25T12:45:09.320Z,11.8
2022-09-25T12:46:17.746Z,11.8
2022-09-25T12:47:26.148Z,11.8
2022-09-25T12:48:34.772Z,13.2
2022-09-25T12:49:43.186Z,13.2
2022-09-25T12:50:51.586Z,13.2
2022-09-25T12:52:00.199Z,10.8
2022-09-25T12:53:08.626Z,10.8
2022-09-25T12:54:17.058Z,10.8
2022-09-25T12:55:25.693Z,13.9
2022-09-25T12:56:34.069Z,13.9
2022-09-25T12:57:42.482Z,13.9
2022-09-25T12:58:51.135Z,26.299999
2022-09-25T12:59:59.542Z,26.299999
2022-09-25T13:01:08.007Z,26.299999
2022-09-25T13:02:16.630Z,12.9
2022-09-25T13:03:25.028Z,12.9
2022-09-25T13:04:33.483Z,12.9
2022-09-25T13:05:42.117Z,12.7
2022-09-25T13:06:50.514Z,12.7
2022-09-25T13:07:58.922Z,12.7
2022-09-25T13:09:07.532Z,15.7
2022-09-25T13:10:15.963Z,15.7
2022-09-25T13:11:24.387Z,15.7
2022-09-25T13:12:32.996Z,20.1
2022-09-25T13:13:41.430Z,20.1
2022-09-25T13:14:49.801Z,20.1
2022-09-25T13:15:58.515Z,7
2022-09-25T13:17:06.852Z,7
2022-09-25T13:18:15.265Z,7
2022-09-25T13:19:23.887Z,5.5
2022-09-25T13:20:32.307Z,5.5
2022-09-25T13:21:40.687Z,5.5
2022-09-25T13:22:49.364Z,5.4
2022-09-25T13:23:57.751Z,5.4
2022-09-25T13:25:06.153Z,5.4
2022-09-25T13:26:14.796Z,8.1
2022-09-25T13:27:23.156Z,8.1
2022-09-25T13:28:31.566Z,8.1
2022-09-25T13:29:40.201Z,14.9
2022-09-25T13:30:48.639Z,14.9
2022-09-25T13:31:57.022Z,14.9
2022-09-25T13:33:05.647Z,24.5
2022-09-25T13:34:14.189Z,24.5
2022-09-25T13:35:22.488Z,24.5
2022-09-25T13:36:31.058Z,15.5
2022-09-25T13:37:39.457Z,15.5
2022-09-25T13:38:47.879Z,15.5
2022-09-25T13:39:56.464Z,26.200001
2022-09-25T13:41:04.869Z,26.200001
2022-09-25T13:42:13.317Z,26.200001
2022-09-25T13:43:21.898Z,6.6
2022-09-25T13:44:30.306Z,6.6
2022-09-25T13:45:38.770Z,6.6
2022-09-25T13:46:47.363Z,7
2022-09-25T13:47:55.819Z,7
2022-09-25T13:49:04.222Z,7
2022-09-25T13:50:12.820Z,6.8
2022-09-25T13:51:21.221Z,6.8
2022-09-25T13:52:29.611Z,6.8
2022-09-25T13:53:38.272Z,9.7
2022-09-25T13:54:46.634Z,9.7
2022-09-25T13:55:55.071Z,9.7
2022-09-25T13:57:03.689Z,8.6
2022-09-25T13:58:12.200Z,8.6
2022-09-25T13:59:20.502Z,8.6
2022-09-25T14:00:29.116Z,9.5
2022-09-25T14:01:37.553Z,9.5
2022-09-25T14:02:45.888Z,9.5
2022-09-25T14:03:54.559Z,10.3
2022-09-25T14:05:02.955Z,10.3
2022-09-25T14:06:11.351Z,10.3
2022-09-25T14:07:19.945Z,10.1
2022-09-25T14:08:28.370Z,10.1
2022-09-25T14:09:36.766Z,10.1
2022-09-25T14:10:45.372Z,10.1
2022-09-25T14:11:53.776Z,10.1
2022-09-25T14:13:06.876Z,10.1
2022-09-25T14:14:10.799Z,27.6
2022-09-25T14:15:19.177Z,27.6
2022-09-25T14:16:27.704Z,27.6
2022-09-25T14:17:36.250Z,10.6
2022-09-25T14:18:44.643Z,10.6
2022-09-25T14:19:53.058Z,10.6
2022-09-25T14:21:01.649Z,14.4
2022-09-25T14:22:10.089Z,14.4
2022-09-25T14:23:18.517Z,14.4
2022-09-25T14:24:27.120Z,15.6
2022-09-25T14:25:35.529Z,15.6
2022-09-25T14:26:43.974Z,15.6
2022-09-25T14:27:52.558Z,16.9
2022-09-25T14:29:01.001Z,16.9
2022-09-25T14:30:09.419Z,16.9
2022-09-25T15:04:47.089Z,0
2022-09-25T15:05:55.315Z,0
2022-09-25T15:07:03.705Z,0
2022-09-25T15:08:12.382Z,46.900002
2022-09-25T15:09:20.756Z,46.900002
2022-09-25T15:10:29.107Z,46.900002
2022-09-25T15:11:37.715Z,10.9
2022-09-25T15:12:46.068Z,10.9
2022-09-25T15:13:54.445Z,10.9
2022-09-25T15:15:03.016Z,9.4
2022-09-25T15:16:11.468Z,9.4
2022-09-25T15:17:19.800Z,9.4
2022-09-25T15:18:28.369Z,8.9
2022-09-25T15:19:36.740Z,8.9
2022-09-25T15:20:45.133Z,8.9
2022-09-25T15:21:53.712Z,9.9
2022-09-25T15:23:02.134Z,9.9
2022-09-25T15:24:10.529Z,9.9
2022-09-25T15:25:19.076Z,12
2022-09-25T15:26:27.506Z,12
2022-09-25T15:27:35.838Z,12
2022-09-25T15:28:44.425Z,12.8
2022-09-25T15:29:52.818Z,12.8
2022-09-25T15:31:01.291Z,12.8
2022-09-25T15:32:09.764Z,12.4
2022-09-25T15:33:18.165Z,12.4
2022-09-25T15:34:26.545Z,12.4
2022-09-25T15:35:35.134Z,11.1
2022-09-25T15:36:43.514Z,11.1
2022-09-25T15:37:51.884Z,11.1
2022-09-25T15:39:00.436Z,9.7
2022-09-25T15:40:08.962Z,9.7
2022-09-25T15:41:17.177Z,9.7
2022-09-25T15:42:25.805Z,10.2
2022-09-25T15:43:34.163Z,10.2
2022-09-25T15:44:42.546Z,10.2
2022-09-25T15:45:51.194Z,10.5
2022-09-25T15:46:59.511Z,10.5
2022-09-25T15:48:07.888Z,10.5
2022-09-25T15:49:16.475Z,8.9
2022-09-25T15:50:24.836Z,8.9
2022-09-25T15:51:33.228Z,8.9
2022-09-25T15:52:41.830Z,8.9
2022-09-25T15:53:50.159Z,8.9
2022-09-25T15:54:58.531Z,8.9
2022-09-25T15:56:07.139Z,9.3
2022-09-25T15:57:15.510Z,9.3
2022-09-25T15:58:23.876Z,9.3
2022-09-25T15:59:32.472Z,9